Time;durP1;ratioP1;P1;durP2;ratioP2;P2;SDS_P1;SDS_P2;PMS_P1;PMS_P2;Temp;Humidity;BMP_temperature;BMP_pressure;BME280_temperature;BME280_humidity;BME280_pressure;Samples;Min_cycle;Max_cycle;Signal;HPM_P1;HPM_P2
2022/03/19 00:00:23;;;;;;;27.70;7.80;;;12.50;94.60;;;;;;5108374;28;20404;-67
2022/03/19 00:02:49;;;;;;;25.30;7.45;;;12.50;94.20;;;;;;5105104;28;20745;-66
2022/03/19 00:05:15;;;;;;;27.20;7.80;;;12.50;94.10;;;;;;5107429;28;20408;-67
2022/03/19 00:07:40;;;;;;;23.40;7.27;;;12.50;94.20;;;;;;5107080;28;20795;-66
2022/03/19 00:10:08;;;;;;;24.17;6.88;;;12.40;94.10;;;;;;5107301;28;20423;-67
2022/03/19 00:12:35;;;;;;;26.23;7.40;;;12.40;94.00;;;;;;5105315;28;21153;-70
2022/03/19 00:15:01;;;;;;;25.95;7.45;;;12.40;94.10;;;;;;5103857;28;20394;-67
2022/03/19 00:17:27;;;;;;;27.10;7.25;;;12.40;94.10;;;;;;5106778;28;20396;-69
2022/03/19 00:19:52;;;;;;;25.27;7.10;;;12.30;94.00;;;;;;5108002;28;20407;-67
2022/03/19 00:22:18;;;;;;;28.57;7.20;;;12.30;94.10;;;;;;5103163;28;21124;-69
2022/03/19 00:24:44;;;;;;;27.35;7.22;;;12.30;93.90;;;;;;5101214;28;20465;-67
2022/03/19 00:27:09;;;;;;;24.77;7.23;;;12.20;94.00;;;;;;5110504;28;20441;-66
2022/03/19 00:29:35;;;;;;;26.20;7.00;;;12.20;94.00;;;;;;5108601;28;20405;-68
2022/03/19 00:32:01;;;;;;;24.40;7.10;;;12.20;94.00;;;;;;5111101;28;20397;-67
2022/03/19 00:34:26;;;;;;;30.50;7.32;;;12.20;93.90;;;;;;5110935;28;20466;-67
2022/03/19 00:36:53;;;;;;;24.30;7.20;;;12.10;93.80;;;;;;5109648;28;20465;-67
2022/03/19 00:39:18;;;;;;;27.15;6.95;;;12.10;93.90;;;;;;5109846;28;20422;-67
2022/03/19 00:41:44;;;;;;;28.00;7.32;;;12.10;93.70;;;;;;5108516;27;20419;-69
2022/03/19 00:44:10;;;;;;;24.67;6.93;;;12.10;93.60;;;;;;5109801;27;20479;-68
2022/03/19 00:46:35;;;;;;;24.77;6.13;;;12.00;93.70;;;;;;5109589;28;20438;-67
2022/03/19 00:49:01;;;;;;;25.17;6.30;;;12.00;93.60;;;;;;5110353;28;20400;-66
2022/03/19 00:51:27;;;;;;;28.27;7.10;;;12.00;93.40;;;;;;5108194;28;20424;-67
2022/03/19 00:53:52;;;;;;;25.33;6.30;;;12.00;93.20;;;;;;5111284;28;20404;-66
2022/03/19 00:56:18;;;;;;;21.17;6.00;;;12.00;93.20;;;;;;5109781;28;20797;-68
2022/03/19 00:58:44;;;;;;;23.67;6.10;;;11.90;93.20;;;;;;5108637;28;20436;-67
2022/03/19 01:01:09;;;;;;;23.23;5.83;;;11.90;93.10;;;;;;5109424;28;20412;-67
2022/03/19 01:03:35;;;;;;;19.55;5.72;;;11.90;92.90;;;;;;5109364;28;21888;-68
2022/03/19 01:06:01;;;;;;;25.40;5.33;;;11.90;92.70;;;;;;5108896;28;20419;-67
2022/03/19 01:08:26;;;;;;;22.23;5.77;;;11.90;92.60;;;;;;5110976;28;20416;-67
2022/03/19 01:10:52;;;;;;;25.58;5.95;;;11.80;92.60;;;;;;5107616;28;20914;-66
2022/03/19 01:13:18;;;;;;;21.83;5.60;;;11.80;92.50;;;;;;5109468;28;20441;-67
2022/03/19 01:15:43;;;;;;;22.48;6.03;;;11.90;92.40;;;;;;5108716;28;20446;-65
2022/03/19 01:18:09;;;;;;;25.00;5.72;;;11.80;92.30;;;;;;5109802;28;20420;-68
2022/03/19 01:20:35;;;;;;;18.77;5.00;;;11.80;92.10;;;;;;5124542;27;20423;-64
2022/03/19 01:23:00;;;;;;;20.77;5.20;;;11.80;92.00;;;;;;5107804;28;20420;-66
2022/03/19 01:25:26;;;;;;;23.73;5.05;;;11.70;91.90;;;;;;5106799;28;20457;-66
2022/03/19 01:27:52;;;;;;;24.90;5.10;;;11.70;92.00;;;;;;5108444;28;20892;-66
2022/03/19 01:30:21;;;;;;;18.67;4.70;;;11.70;91.70;;;;;;5107776;28;20977;-65
2022/03/19 01:32:48;;;;;;;18.75;4.85;;;11.70;91.70;;;;;;5103732;28;20410;-68
2022/03/19 01:35:16;;;;;;;18.70;5.15;;;11.60;91.80;;;;;;5107254;28;20404;-68
2022/03/19 01:37:42;;;;;;;20.58;4.88;;;11.60;91.60;;;;;;5109875;28;20941;-68
2022/03/19 01:40:10;;;;;;;20.30;4.90;;;11.60;91.60;;;;;;5107895;28;20408;-65
2022/03/19 01:42:40;;;;;;;19.27;4.67;;;11.60;91.20;;;;;;5108263;28;20502;-68
2022/03/19 01:45:10;;;;;;;20.02;4.38;;;11.60;91.20;;;;;;5106301;28;20835;-66
2022/03/19 01:47:36;;;;;;;17.67;4.80;;;11.60;91.10;;;;;;5109784;28;20407;-66
2022/03/19 01:50:03;;;;;;;22.17;4.78;;;11.60;91.10;;;;;;5107980;28;20408;-69
2022/03/19 01:52:29;;;;;;;19.30;4.30;;;11.60;91.00;;;;;;5108386;28;20483;-65
2022/03/19 01:54:58;;;;;;;20.10;4.10;;;11.50;90.80;;;;;;5107964;28;20518;-67
2022/03/19 01:57:26;;;;;;;17.83;4.40;;;11.50;90.70;;;;;;5108258;28;20400;-67
2022/03/19 01:59:52;;;;;;;16.48;4.03;;;11.50;90.50;;;;;;5107653;28;20407;-68
2022/03/19 02:02:19;;;;;;;18.33;4.10;;;11.50;90.50;;;;;;5107189;28;20415;-68
2022/03/19 02:04:45;;;;;;;19.95;4.28;;;11.40;90.10;;;;;;5104341;28;20404;-69
2022/03/19 02:07:13;;;;;;;19.13;4.38;;;11.40;90.00;;;;;;5108190;28;20412;-67
2022/03/19 02:09:40;;;;;;;18.98;4.25;;;11.40;89.30;;;;;;5105889;28;20410;-67
2022/03/19 02:12:06;;;;;;;18.17;4.10;;;11.40;89.20;;;;;;5107945;28;20427;-67
2022/03/19 02:14:37;;;;;;;17.60;4.10;;;11.40;88.50;;;;;;5107763;28;20478;-67
2022/03/19 02:17:04;;;;;;;17.45;4.10;;;11.30;88.00;;;;;;5107963;28;20927;-67
2022/03/19 02:19:31;;;;;;;18.17;3.50;;;11.30;88.30;;;;;;5106663;28;20416;-68
2022/03/19 02:21:57;;;;;;;16.75;3.92;;;11.30;88.40;;;;;;5109174;27;20473;-69
2022/03/19 02:27:24;;;;;;;17.58;3.92;;;11.20;88.20;;;;;;5045571;28;20475;-69
2022/03/19 02:29:50;;;;;;;18.23;3.87;;;11.20;87.80;;;;;;5092816;28;20439;-67
2022/03/19 02:32:15;;;;;;;18.87;4.00;;;11.20;87.60;;;;;;5109526;28;20418;-68
2022/03/19 02:34:41;;;;;;;18.83;4.20;;;11.20;87.70;;;;;;5103987;28;20400;-67
2022/03/19 02:37:06;;;;;;;17.27;3.77;;;11.10;87.50;;;;;;5107292;28;20473;-67
2022/03/19 02:39:32;;;;;;;15.73;4.13;;;11.10;87.30;;;;;;5105458;28;20479;-65
2022/03/19 02:42:01;;;;;;;18.52;4.18;;;11.10;87.80;;;;;;5109403;28;20400;-68
2022/03/19 02:44:27;;;;;;;17.23;4.43;;;11.10;87.70;;;;;;5107978;28;20412;-66
2022/03/19 02:46:56;;;;;;;18.40;4.22;;;11.10;87.40;;;;;;5106301;28;20466;-67
2022/03/19 02:49:22;;;;;;;17.92;4.30;;;11.00;87.30;;;;;;5105671;28;20419;-67
2022/03/19 02:51:49;;;;;;;17.47;4.43;;;11.00;87.60;;;;;;5109649;28;20439;-67
2022/03/19 02:54:20;;;;;;;18.13;4.45;;;11.00;87.80;;;;;;5106689;28;20412;-67
2022/03/19 02:56:47;;;;;;;19.25;4.38;;;11.00;87.70;;;;;;5109175;28;20437;-68
2022/03/19 02:59:17;;;;;;;21.70;4.45;;;10.90;87.80;;;;;;5105795;28;20416;-69
2022/03/19 03:01:44;;;;;;;18.70;4.55;;;11.00;87.90;;;;;;5107673;28;20760;-64
2022/03/19 03:04:10;;;;;;;21.13;4.97;;;10.90;87.70;;;;;;5107714;28;20498;-64
2022/03/19 03:06:38;;;;;;;16.75;4.38;;;10.90;88.00;;;;;;5106530;28;20457;-66
2022/03/19 03:09:05;;;;;;;16.17;4.72;;;10.90;88.10;;;;;;5104112;28;20511;-64
2022/03/19 03:11:31;;;;;;;21.73;5.18;;;10.90;88.20;;;;;;5106983;28;20919;-65
2022/03/19 03:13:59;;;;;;;19.33;5.00;;;10.90;88.50;;;;;;5105997;28;20450;-65
2022/03/19 03:16:26;;;;;;;18.00;5.18;;;10.80;88.60;;;;;;5108101;28;20481;-66
2022/03/19 03:18:56;;;;;;;20.00;5.10;;;10.80;89.00;;;;;;5107092;28;20395;-66
2022/03/19 03:21:22;;;;;;;24.00;5.72;;;10.80;89.10;;;;;;5106681;28;20447;-68
2022/03/19 03:23:48;;;;;;;18.53;5.33;;;10.80;88.80;;;;;;5107268;28;20896;-65
2022/03/19 03:26:13;;;;;;;18.85;5.40;;;10.80;89.00;;;;;;5108886;28;20446;-66
2022/03/19 03:28:40;;;;;;;21.07;5.27;;;10.80;89.20;;;;;;5105389;28;20444;-68
2022/03/19 03:31:06;;;;;;;19.43;5.43;;;10.70;89.00;;;;;;5108137;28;20404;-68
2022/03/19 03:33:32;;;;;;;17.92;5.50;;;10.70;89.10;;;;;;5106640;28;20488;-66
2022/03/19 03:35:57;;;;;;;22.13;5.30;;;10.60;89.30;;;;;;5108737;28;20392;-65
2022/03/19 03:38:23;;;;;;;21.13;5.53;;;10.70;89.70;;;;;;5106616;28;20415;-68
2022/03/19 03:40:48;;;;;;;17.27;5.17;;;10.60;89.60;;;;;;5106110;28;20487;-66
2022/03/19 03:43:14;;;;;;;24.58;5.63;;;10.60;89.80;;;;;;5105239;28;20431;-67
2022/03/19 03:45:40;;;;;;;19.80;5.57;;;10.60;90.00;;;;;;5106477;28;20439;-67
2022/03/19 03:48:05;;;;;;;21.10;6.27;;;10.60;90.10;;;;;;5102346;28;20454;-64
2022/03/19 03:50:31;;;;;;;18.13;5.63;;;10.50;90.00;;;;;;5108673;28;20469;-66
2022/03/19 03:52:57;;;;;;;20.48;6.05;;;10.50;90.10;;;;;;5106311;28;20407;-65
2022/03/19 03:55:23;;;;;;;23.60;6.13;;;10.50;90.10;;;;;;5108287;28;20848;-67
2022/03/19 03:57:48;;;;;;;24.73;6.38;;;10.50;90.20;;;;;;5106250;28;20428;-66
2022/03/19 04:00:14;;;;;;;25.40;6.50;;;10.50;90.10;;;;;;5109323;28;20408;-66
2022/03/19 04:02:41;;;;;;;20.92;6.63;;;10.40;90.20;;;;;;5109826;27;20473;-67
2022/03/19 04:05:08;;;;;;;23.83;6.53;;;10.40;90.30;;;;;;5109534;28;20503;-65
2022/03/19 04:07:34;;;;;;;27.30;6.82;;;10.40;90.40;;;;;;5110391;28;20940;-68
2022/03/19 04:09:59;;;;;;;21.50;6.33;;;10.40;90.40;;;;;;5112200;28;20407;-66
2022/03/19 04:12:25;;;;;;;20.60;6.75;;;10.40;90.60;;;;;;5108998;28;20928;-68
2022/03/19 04:14:52;;;;;;;22.93;6.50;;;10.40;90.60;;;;;;5128091;27;20472;-67
2022/03/19 04:17:19;;;;;;;23.30;7.28;;;10.30;90.60;;;;;;5108800;28;20421;-68
2022/03/19 04:19:45;;;;;;;19.27;6.72;;;10.30;90.60;;;;;;5103325;28;20419;-65
2022/03/19 04:22:10;;;;;;;20.30;6.28;;;10.30;90.70;;;;;;5111799;28;20185;-67
2022/03/19 04:24:36;;;;;;;27.98;6.35;;;9.90;90.90;;;;;;5111978;28;20177;-67
2022/03/19 04:27:02;;;;;;;22.02;6.50;;;9.60;91.30;;;;;;5110717;28;20540;-68
2022/03/19 04:29:28;;;;;;;16.60;5.97;;;9.40;91.50;;;;;;5110864;28;20217;-68
2022/03/19 04:31:54;;;;;;;20.95;6.22;;;9.20;91.70;;;;;;5112090;28;20173;-66
2022/03/19 04:34:19;;;;;;;17.92;6.18;;;9.10;91.80;;;;;;5112022;28;20209;-67
2022/03/19 04:36:45;;;;;;;22.83;6.10;;;9.00;91.90;;;;;;5111837;28;20652;-69
2022/03/19 04:39:11;;;;;;;20.13;6.10;;;8.90;92.00;;;;;;5110249;28;20199;-68
2022/03/19 04:41:38;;;;;;;19.90;6.40;;;8.80;92.10;;;;;;5110822;28;20193;-67
2022/03/19 04:44:05;;;;;;;14.02;5.30;;;8.80;92.20;;;;;;5110886;28;20653;-67
2022/03/19 04:46:31;;;;;;;26.10;6.40;;;8.70;92.30;;;;;;5109632;28;20232;-67
2022/03/19 04:48:57;;;;;;;23.27;6.43;;;8.60;92.70;;;;;;5108604;28;20206;-67
2022/03/19 04:51:29;;;;;;;23.15;6.90;;;8.60;92.40;;;;;;5111586;28;20629;-65
2022/03/19 04:53:54;;;;;;;23.23;6.63;;;8.50;92.50;;;;;;5107750;28;20212;-65
2022/03/19 04:56:24;;;;;;;21.42;6.50;;;8.50;92.50;;;;;;5110826;27;20212;-67
2022/03/19 04:58:52;;;;;;;26.02;7.55;;;8.50;92.60;;;;;;5107259;28;20181;-66
2022/03/19 05:01:18;;;;;;;22.98;6.75;;;8.40;92.70;;;;;;5108878;28;20228;-65
2022/03/19 05:03:44;;;;;;;19.42;6.90;;;8.40;92.80;;;;;;5109189;28;20197;-66
2022/03/19 05:06:10;;;;;;;18.83;6.50;;;8.40;92.90;;;;;;5108092;28;20192;-69
2022/03/19 05:08:36;;;;;;;18.55;6.70;;;8.40;93.00;;;;;;5109181;28;20217;-67
2022/03/19 05:11:13;;;;;;;25.27;6.57;;;8.30;93.00;;;;;;5108976;28;20185;-68
2022/03/19 05:13:53;;;;;;;18.83;6.88;;;8.30;93.10;;;;;;5107765;28;20193;-66
2022/03/19 05:16:19;;;;;;;21.60;7.55;;;8.30;93.20;;;;;;5110730;28;20231;-65
2022/03/19 05:18:45;;;;;;;20.17;7.63;;;8.30;93.30;;;;;;5109506;28;20189;-65
2022/03/19 05:21:13;;;;;;;23.50;7.38;;;8.20;93.30;;;;;;5111278;28;20645;-67
2022/03/19 05:23:41;;;;;;;19.40;6.97;;;8.20;93.40;;;;;;5108131;28;20185;-66
2022/03/19 05:26:07;;;;;;;21.83;8.13;;;8.20;93.50;;;;;;5104263;28;20613;-65
2022/03/19 05:28:33;;;;;;;19.23;7.38;;;8.10;93.60;;;;;;5106006;28;20276;-65
2022/03/19 05:31:00;;;;;;;25.10;7.57;;;8.10;93.70;;;;;;5104964;28;20209;-66
2022/03/19 05:36:10;;;;;;;27.17;8.35;;;8.10;93.90;;;;;;5107569;28;20238;-67
2022/03/19 05:38:37;;;;;;;25.27;8.40;;;8.00;94.00;;;;;;5107075;28;20715;-65
2022/03/19 05:41:02;;;;;;;22.17;8.73;;;8.00;94.00;;;;;;5109455;28;20173;-65
2022/03/19 05:43:28;;;;;;;23.67;8.13;;;8.00;94.20;;;;;;5110271;28;20192;-66
2022/03/19 05:45:55;;;;;;;23.48;8.68;;;8.00;94.30;;;;;;5106015;28;20232;-67
2022/03/19 05:48:20;;;;;;;26.38;7.60;;;8.00;94.40;;;;;;5107991;28;20580;-66
2022/03/19 05:50:46;;;;;;;23.30;8.20;;;8.00;94.50;;;;;;5108274;28;20675;-66
2022/03/19 05:53:12;;;;;;;23.17;8.82;;;7.90;94.60;;;;;;5110546;28;20246;-65
2022/03/19 05:55:37;;;;;;;22.90;8.00;;;7.90;94.70;;;;;;5105776;28;20252;-67
2022/03/19 05:58:03;;;;;;;27.95;8.70;;;7.90;94.80;;;;;;5105872;28;20189;-68
2022/03/19 06:00:29;;;;;;;20.20;7.93;;;7.90;94.90;;;;;;5103682;28;20759;-66
2022/03/19 06:02:54;;;;;;;23.77;8.38;;;7.90;95.00;;;;;;5104535;28;20195;-66
2022/03/19 06:05:21;;;;;;;26.83;9.60;;;7.90;95.00;;;;;;5107869;28;20256;-70
2022/03/19 06:07:48;;;;;;;24.85;8.80;;;7.90;95.10;;;;;;5108322;28;20526;-68
2022/03/19 06:10:14;;;;;;;22.98;9.48;;;7.90;95.20;;;;;;5108100;28;20295;-67
2022/03/19 06:12:40;;;;;;;24.92;9.00;;;7.90;95.30;;;;;;5108503;28;20608;-66
2022/03/19 06:15:06;;;;;;;24.38;9.45;;;7.90;95.40;;;;;;5107737;28;20190;-66
2022/03/19 06:17:32;;;;;;;23.05;9.93;;;7.90;95.50;;;;;;5106461;28;20284;-66
2022/03/19 06:19:58;;;;;;;22.85;9.90;;;7.90;95.50;;;;;;5106317;28;20264;-66
2022/03/19 06:22:24;;;;;;;24.85;10.20;;;7.90;95.60;;;;;;5108338;28;20268;-66
2022/03/19 06:24:49;;;;;;;24.67;10.00;;;7.90;95.70;;;;;;5109092;28;20185;-66
2022/03/19 06:27:15;;;;;;;23.08;10.40;;;7.90;95.80;;;;;;5109134;28;20245;-66
2022/03/19 06:29:42;;;;;;;24.27;10.75;;;7.90;95.90;;;;;;5104864;28;20206;-66
2022/03/19 06:32:08;;;;;;;21.65;10.32;;;7.90;96.00;;;;;;5109896;28;20664;-65
2022/03/19 06:34:33;;;;;;;27.92;11.13;;;7.90;96.10;;;;;;5107856;28;20185;-67
2022/03/19 06:39:43;;;;;;;35.40;10.23;;;8.00;96.20;;;;;;5104447;28;20181;-66
2022/03/19 06:42:09;;;;;;;26.98;11.38;;;8.00;96.30;;;;;;5109394;28;20230;-66
2022/03/19 06:44:35;;;;;;;27.20;10.57;;;8.00;96.40;;;;;;5108361;28;20177;-68
2022/03/19 06:47:01;;;;;;;27.85;10.00;;;8.00;96.40;;;;;;5107718;28;20231;-68
2022/03/19 06:49:28;;;;;;;23.02;9.70;;;8.00;96.50;;;;;;5104701;28;20366;-67
2022/03/19 06:51:54;;;;;;;22.02;10.45;;;8.10;96.60;;;;;;5107755;28;20189;-65
2022/03/19 06:54:20;;;;;;;27.38;11.10;;;8.10;96.60;;;;;;5107125;28;20230;-67
2022/03/19 06:56:46;;;;;;;29.35;9.70;;;8.10;96.70;;;;;;5102489;28;20698;-65
2022/03/19 06:59:11;;;;;;;23.50;10.13;;;8.20;96.70;;;;;;5107357;28;20234;-65
2022/03/19 07:01:37;;;;;;;25.80;11.17;;;8.20;96.80;;;;;;5101445;28;20427;-70
2022/03/19 07:04:03;;;;;;;24.60;10.15;;;8.70;97.40;;;;;;5104742;28;20412;-69
2022/03/19 07:06:29;;;;;;;29.23;10.90;;;9.00;97.10;;;;;;5104156;28;20418;-66
2022/03/19 07:08:55;;;;;;;26.83;9.60;;;9.30;96.60;;;;;;5104731;28;20935;-66
2022/03/19 07:11:20;;;;;;;23.77;8.75;;;9.50;96.20;;;;;;5099543;28;20417;-67
2022/03/19 07:13:46;;;;;;;21.77;7.68;;;9.60;95.90;;;;;;5121365;28;20226;-67
2022/03/19 07:16:12;;;;;;;19.50;7.07;;;9.30;96.20;;;;;;5108057;28;20273;-69
2022/03/19 07:18:37;;;;;;;17.75;6.72;;;9.10;96.40;;;;;;5119756;28;20227;-69
2022/03/19 07:21:03;;;;;;;24.58;7.20;;;9.00;97.00;;;;;;5106803;28;20563;-68
2022/03/19 07:23:29;;;;;;;14.52;6.78;;;8.90;96.70;;;;;;5104830;28;20197;-67
2022/03/19 07:25:59;;;;;;;17.88;6.53;;;8.80;96.60;;;;;;5105465;28;20284;-66
2022/03/19 07:28:26;;;;;;;14.93;6.47;;;8.80;96.60;;;;;;5108106;28;20212;-67
2022/03/19 07:30:52;;;;;;;20.75;6.85;;;8.80;96.60;;;;;;5106136;28;20180;-68
2022/03/19 07:33:18;;;;;;;16.63;5.53;;;8.80;96.50;;;;;;5107474;28;20173;-68
2022/03/19 07:35:44;;;;;;;19.70;6.20;;;8.80;96.50;;;;;;5108186;28;20211;-68
2022/03/19 07:38:11;;;;;;;17.58;5.85;;;8.80;96.40;;;;;;5110163;28;20196;-67
2022/03/19 07:43:25;;;;;;;16.75;5.90;;;8.80;96.30;;;;;;5109672;28;20498;-68
2022/03/19 07:45:52;;;;;;;17.80;5.70;;;9.40;94.90;;;;;;5106017;27;20465;-67
2022/03/19 07:48:18;;;;;;;14.52;5.32;;;9.70;93.70;;;;;;5107774;28;20420;-67
2022/03/19 07:50:44;;;;;;;14.55;5.13;;;9.90;92.90;;;;;;5109590;27;20452;-67
2022/03/19 07:53:10;;;;;;;13.80;4.70;;;10.10;92.20;;;;;;5097524;28;20442;-68
2022/03/19 07:55:36;;;;;;;10.37;4.37;;;10.20;91.10;;;;;;5108066;28;20930;-69
2022/03/19 07:58:03;;;;;;;13.50;4.60;;;10.40;90.50;;;;;;5110828;28;20388;-70
2022/03/19 08:00:29;;;;;;;12.32;4.65;;;10.50;89.50;;;;;;5111615;28;20445;-69
2022/03/19 08:02:55;;;;;;;16.03;4.47;;;10.60;88.60;;;;;;5112128;28;20411;-68
2022/03/19 08:05:21;;;;;;;11.32;4.40;;;10.70;87.70;;;;;;5110433;28;20884;-69
2022/03/19 08:07:46;;;;;;;16.93;4.40;;;10.80;87.10;;;;;;5108321;28;20893;-69
2022/03/19 08:10:13;;;;;;;14.15;6.30;;;10.90;86.80;;;;;;5111280;28;20474;-68
2022/03/19 08:12:40;;;;;;;14.77;4.78;;;11.00;86.20;;;;;;5111923;28;20978;-70
2022/03/19 08:15:08;;;;;;;13.55;4.57;;;11.10;86.40;;;;;;5111413;28;20400;-69
2022/03/19 08:17:36;;;;;;;10.75;4.00;;;11.10;84.20;;;;;;5111879;28;20898;-70
2022/03/19 08:20:04;;;;;;;17.45;4.82;;;11.20;83.10;;;;;;5108818;28;20404;-68
2022/03/19 08:22:30;;;;;;;11.13;4.00;;;11.30;82.70;;;;;;5110140;28;20404;-70
2022/03/19 08:24:55;;;;;;;9.77;4.13;;;11.40;82.80;;;;;;5107130;28;20936;-67
2022/03/19 08:27:23;;;;;;;13.17;4.40;;;11.50;82.00;;;;;;5111180;28;20737;-69
2022/03/19 08:29:48;;;;;;;12.27;4.35;;;11.60;80.50;;;;;;5110082;28;20751;-68
2022/03/19 08:32:14;;;;;;;13.43;4.50;;;11.70;81.40;;;;;;5108198;28;20404;-68
2022/03/19 08:34:40;;;;;;;11.90;4.23;;;11.80;82.50;;;;;;5109973;28;20400;-63
2022/03/19 08:37:06;;;;;;;13.30;4.63;;;12.00;82.30;;;;;;5111730;28;20388;-66
2022/03/19 08:42:17;;;;;;;14.18;4.70;;;12.80;79.80;;;;;;5107794;28;20392;-68
2022/03/19 08:44:43;;;;;;;12.10;4.05;;;13.70;76.80;;;;;;5111327;27;20411;-68
2022/03/19 08:47:08;;;;;;;11.83;4.27;;;14.30;73.20;;;;;;5105815;28;20424;-66
2022/03/19 08:49:34;;;;;;;12.25;4.45;;;14.60;70.70;;;;;;5108435;28;20443;-68
2022/03/19 08:52:00;;;;;;;15.15;4.60;;;14.60;68.80;;;;;;5110940;27;20420;-68
2022/03/19 08:54:26;;;;;;;12.67;4.43;;;14.40;70.70;;;;;;5104893;28;20876;-67
2022/03/19 08:56:52;;;;;;;11.13;4.28;;;14.30;73.60;;;;;;5107715;28;20458;-67
2022/03/19 08:59:20;;;;;;;14.40;4.75;;;14.20;73.20;;;;;;5109297;28;20408;-69
2022/03/19 09:01:48;;;;;;;13.25;4.47;;;14.10;74.70;;;;;;5107753;28;20444;-69
2022/03/19 09:04:14;;;;;;;10.65;4.35;;;14.00;73.50;;;;;;5108485;28;20755;-68
2022/03/19 09:06:41;;;;;;;13.38;4.70;;;13.90;74.90;;;;;;5109169;28;20920;-67
2022/03/19 09:09:06;;;;;;;12.75;5.10;;;13.90;76.30;;;;;;5090788;28;20412;-69
2022/03/19 09:11:34;;;;;;;13.55;4.72;;;13.90;78.80;;;;;;5105189;28;20400;-69
2022/03/19 09:14:02;;;;;;;11.93;4.30;;;13.90;76.30;;;;;;5102989;28;20756;-67
2022/03/19 09:16:28;;;;;;;13.10;4.45;;;14.00;77.00;;;;;;5103442;28;20400;-70
2022/03/19 09:18:54;;;;;;;15.82;5.50;;;14.10;75.90;;;;;;5106827;28;20412;-69
2022/03/19 09:21:19;;;;;;;14.70;5.57;;;14.10;74.60;;;;;;5108734;28;20423;-67
2022/03/19 09:23:45;;;;;;;16.07;4.73;;;14.20;76.40;;;;;;5104335;28;20412;-66
2022/03/19 09:26:12;;;;;;;12.13;4.47;;;14.20;76.40;;;;;;5103713;28;20488;-68
2022/03/19 09:28:38;;;;;;;16.45;5.05;;;14.30;77.10;;;;;;5105276;28;20424;-67
2022/03/19 09:31:04;;;;;;;14.10;4.00;;;14.40;76.80;;;;;;5101622;28;20403;-69
2022/03/19 09:33:30;;;;;;;14.85;4.75;;;14.50;74.30;;;;;;5108939;28;20457;-68
2022/03/19 09:35:58;;;;;;;14.80;5.00;;;14.60;73.40;;;;;;5107960;28;20404;-67
2022/03/19 09:38:24;;;;;;;12.43;4.53;;;14.70;74.30;;;;;;5105446;28;20419;-69
2022/03/19 09:40:50;;;;;;;18.42;4.60;;;14.90;73.50;;;;;;5103076;28;20415;-69
2022/03/19 09:43:16;;;;;;;14.43;4.30;;;15.00;75.30;;;;;;5108412;28;20907;-67
2022/03/19 09:45:41;;;;;;;13.07;3.93;;;15.20;74.30;;;;;;5105112;28;20503;-69
2022/03/19 09:48:07;;;;;;;11.10;3.78;;;15.40;75.50;;;;;;5105204;28;20423;-70
2022/03/19 09:50:36;;;;;;;13.55;4.68;;;15.60;71.30;;;;;;5104904;28;20415;-68
2022/03/19 09:53:04;;;;;;;13.50;4.38;;;15.70;69.80;;;;;;5107013;28;20407;-68
2022/03/19 09:55:30;;;;;;;12.80;3.65;;;15.90;69.00;;;;;;5102872;28;21158;-67
2022/03/19 09:57:57;;;;;;;13.27;3.80;;;16.30;67.90;;;;;;5107843;28;20392;-67
2022/03/19 10:00:24;;;;;;;9.73;3.30;;;16.60;66.40;;;;;;5103280;28;20404;-67
2022/03/19 10:03:03;;;;;;;10.30;3.17;;;17.00;60.40;;;;;;5105869;28;20416;-65
2022/03/19 10:08:37;;;;;;;10.27;3.15;;;17.90;55.30;;;;;;5106375;28;20907;-66
2022/03/19 10:11:04;;;;;;;10.80;2.90;;;18.70;54.20;;;;;;5105626;28;20407;-66
2022/03/19 10:13:30;;;;;;;7.32;2.60;;;19.50;52.10;;;;;;5105425;28;20408;-67
2022/03/19 10:15:55;;;;;;;8.17;2.70;;;20.20;48.10;;;;;;5103827;28;20929;-67
2022/03/19 10:18:31;;;;;;;7.97;2.47;;;20.90;46.70;;;;;;5102866;28;20411;-66
2022/03/19 10:21:02;;;;;;;10.18;2.88;;;21.80;45.00;;;;;;5105611;28;20417;-68
2022/03/19 10:23:39;;;;;;;6.93;2.60;;;22.60;42.40;;;;;;5108797;28;20520;-68
2022/03/19 10:26:08;;;;;;;8.70;3.10;;;23.30;38.10;;;;;;5109309;28;20908;-69
2022/03/19 10:28:35;;;;;;;8.38;3.15;;;23.90;37.80;;;;;;5107914;28;20430;-68
2022/03/19 10:31:02;;;;;;;6.70;2.50;;;24.80;37.40;;;;;;5107858;28;20460;-69
2022/03/19 10:33:33;;;;;;;8.40;2.58;;;25.60;32.90;;;;;;5108190;28;20415;-69
2022/03/19 10:36:09;;;;;;;6.32;2.40;;;26.00;34.50;;;;;;5107762;28;20399;-68
2022/03/19 10:38:44;;;;;;;8.07;2.38;;;26.60;31.10;;;;;;5108066;28;20457;-68
2022/03/19 10:41:12;;;;;;;8.82;2.20;;;26.80;29.70;;;;;;5107387;28;20733;-68
2022/03/19 10:43:37;;;;;;;;;;;27.00;29.70;;;;;;5108501;28;20392;-67
2022/03/19 10:46:04;;;;;;;;;;;27.30;29.00;;;;;;5110510;28;20360;-65
2022/03/19 10:48:30;;;;;;;7.57;2.33;;;27.60;29.10;;;;;;5109044;28;20419;-68
2022/03/19 10:50:57;;;;;;;;;;;28.00;28.20;;;;;;5107740;28;20399;-67
2022/03/19 10:53:24;;;;;;;7.00;2.13;;;28.40;28.00;;;;;;5108719;28;20411;-69
2022/03/19 10:55:51;;;;;;;7.10;2.15;;;28.70;27.20;;;;;;5106818;28;20497;-68
2022/03/19 10:58:16;;;;;;;6.47;2.20;;;28.50;28.80;;;;;;5107455;28;20761;-66
2022/03/19 11:00:47;;;;;;;4.82;1.98;;;28.10;28.30;;;;;;5105316;28;20412;-68
2022/03/19 11:03:23;;;;;;;7.35;2.00;;;27.80;29.70;;;;;;5109253;28;20764;-67
2022/03/19 11:05:52;;;;;;;6.22;2.15;;;27.90;29.70;;;;;;5105916;28;20495;-68
2022/03/19 11:08:19;;;;;;;;;;;28.20;28.30;;;;;;5110141;28;20883;-69
2022/03/19 11:10:45;;;;;;;;;;;28.50;27.40;;;;;;5107372;28;20976;-69
2022/03/19 11:13:12;;;;;;;;;;;28.70;26.40;;;;;;5109807;28;19912;-67
2022/03/19 11:15:39;;;;;;;4.72;1.90;;;29.00;26.70;;;;;;5108337;28;20497;-67
2022/03/19 11:18:07;;;;;;;8.50;2.20;;;29.30;26.30;;;;;;5106865;28;20552;-68
2022/03/19 11:20:34;;;;;;;6.00;2.10;;;30.10;25.00;;;;;;5106460;28;20974;-68
2022/03/19 11:23:01;;;;;;;;;;;31.00;23.60;;;;;;5108472;28;20424;-68
2022/03/19 11:25:26;;;;;;;;;;;31.90;23.70;;;;;;5108795;28;19945;-68
2022/03/19 11:27:57;;;;;;;;;;;32.40;22.00;;;;;;5108785;28;20014;-70
2022/03/19 11:30:27;;;;;;;;;;;32.80;21.50;;;;;;5108722;28;19922;-69
2022/03/19 11:33:00;;;;;;;;;;;33.20;22.00;;;;;;5108306;28;19911;-67
2022/03/19 11:35:26;;;;;;;;;;;33.40;21.70;;;;;;5109136;28;19912;-69
2022/03/19 11:38:01;;;;;;;;;;;33.70;21.00;;;;;;5107795;28;19914;-71
2022/03/19 11:40:29;;;;;;;;;;;33.60;22.20;;;;;;5108044;28;19912;-71
2022/03/19 11:43:00;;;;;;;;;;;33.10;22.10;;;;;;5109170;28;19914;-69
2022/03/19 11:45:26;;;;;;;8.43;2.70;;;32.70;22.60;;;;;;5105836;28;20405;-69
2022/03/19 11:47:52;;;;;;;8.25;2.40;;;32.30;22.70;;;;;;5107796;28;20420;-68
2022/03/19 11:50:31;;;;;;;7.63;2.47;;;31.90;23.80;;;;;;5107295;28;20847;-68
2022/03/19 11:52:56;;;;;;;9.20;2.53;;;31.80;23.20;;;;;;5107737;28;20423;-67
2022/03/19 11:55:29;;;;;;;8.18;2.42;;;31.80;24.40;;;;;;5105222;28;20412;-67
2022/03/19 11:58:00;;;;;;;7.85;2.40;;;31.80;22.70;;;;;;5108598;28;20431;-67
2022/03/19 12:00:28;;;;;;;7.85;2.20;;;32.00;23.80;;;;;;5106138;28;20915;-66
2022/03/19 12:03:06;;;;;;;7.90;2.40;;;32.20;24.00;;;;;;5107372;28;20407;-70
2022/03/19 12:05:33;;;;;;;;;;;32.30;22.40;;;;;;5107390;28;20836;-67
2022/03/19 12:08:12;;;;;;;;;;;32.50;22.80;;;;;;5108055;28;19915;-67
2022/03/19 12:10:54;;;;;;;;;;;32.80;21.80;;;;;;5106299;28;20011;-66
2022/03/19 12:13:20;;;;;;;;;;;33.10;21.60;;;;;;5108486;28;19912;-69
2022/03/19 12:15:47;;;;;;;;;;;33.10;22.20;;;;;;5108804;28;19911;-70
2022/03/19 12:18:29;;;;;;;8.23;2.53;;;33.00;23.60;;;;;;5106894;28;19916;-68
2022/03/19 12:21:00;;;;;;;9.13;2.53;;;32.70;22.80;;;;;;5108367;28;20400;-69
2022/03/19 12:23:28;;;;;;;9.88;2.72;;;32.40;22.00;;;;;;5110126;28;20495;-68
2022/03/19 12:26:05;;;;;;;9.15;2.30;;;32.00;23.00;;;;;;5109684;28;20506;-68
2022/03/19 12:28:31;;;;;;;6.88;2.22;;;31.70;24.20;;;;;;5111942;28;20551;-65
2022/03/19 12:31:08;;;;;;;7.45;2.30;;;31.30;24.90;;;;;;5108962;28;20430;-70
2022/03/19 12:33:34;;;;;;;8.88;2.40;;;30.80;25.30;;;;;;5111872;28;20396;-67
2022/03/19 12:36:14;;;;;;;6.90;2.50;;;30.40;24.70;;;;;;5109196;28;20482;-68
2022/03/19 12:38:40;;;;;;;8.70;2.50;;;30.10;24.70;;;;;;5109263;28;21256;-66
2022/03/19 12:41:26;;;;;;;10.00;2.57;;;29.90;25.00;;;;;;5111319;28;20397;-67
2022/03/19 12:43:51;;;;;;;8.02;2.70;;;29.80;27.30;;;;;;5110221;28;20439;-68
2022/03/19 12:46:26;;;;;;;9.27;2.50;;;29.50;25.20;;;;;;5111578;28;20504;-66
2022/03/19 12:49:07;;;;;;;9.17;2.30;;;29.20;27.60;;;;;;5108819;28;20419;-68
2022/03/19 12:51:34;;;;;;;7.55;2.53;;;28.80;25.40;;;;;;5108371;28;20765;-67
2022/03/19 12:53:59;;;;;;;8.25;2.83;;;28.70;25.60;;;;;;5105476;28;20487;-67
2022/03/19 12:56:27;;;;;;;9.52;2.58;;;28.70;24.70;;;;;;5109587;28;20482;-67
2022/03/19 12:58:58;;;;;;;8.57;2.28;;;28.70;25.30;;;;;;5111421;28;20411;-68
2022/03/19 13:01:26;;;;;;;8.88;2.40;;;28.80;26.90;;;;;;5106832;28;20511;-67